Time;durP1;ratioP1;P1;durP2;ratioP2;P2;SDS_P1;SDS_P2;PMS_P1;PMS_P2;Temp;Humidity;BMP_temperature;BMP_pressure;BME280_temperature;BME280_humidity;BME280_pressure;Samples;Min_cycle;Max_cycle;Signal;HPM_P1;HPM_P2
2022/06/05 00:00:22;;;;;;;7.28;3.97;;;22.10;80.40;;;;;;5052050;28;20052;-64
2022/06/05 00:03:00;;;;;;;7.93;4.60;;;22.10;83.20;;;;;;5020202;28;20045;-64
2022/06/05 00:05:28;;;;;;;9.70;4.65;;;22.00;83.80;;;;;;5050405;28;20041;-64
2022/06/05 00:08:25;;;;;;;7.93;4.38;;;22.00;83.20;;;;;;5051798;28;20051;-64
2022/06/05 00:10:55;;;;;;;7.63;4.05;;;21.90;79.20;;;;;;4962871;28;20062;-64
2022/06/05 00:13:41;;;;;;;8.18;4.55;;;22.00;80.70;;;;;;4975672;28;20058;-64
2022/06/05 00:16:08;;;;;;;7.65;4.35;;;21.80;83.20;;;;;;4945402;28;20058;-64
2022/06/05 00:18:37;;;;;;;7.85;4.22;;;22.20;80.30;;;;;;4992812;28;20046;-64
2022/06/05 00:21:04;;;;;;;8.57;4.22;;;22.10;83.30;;;;;;4974082;28;20126;-64
2022/06/05 00:23:30;;;;;;;8.05;4.45;;;22.00;83.70;;;;;;4976419;28;20042;-64
2022/06/05 00:26:17;;;;;;;7.97;4.35;;;22.00;80.30;;;;;;4976421;28;20049;-66
2022/06/05 00:28:47;;;;;;;9.48;4.63;;;21.90;83.30;;;;;;4993369;28;20209;-64
2022/06/05 00:31:23;;;;;;;6.85;4.20;;;22.20;83.70;;;;;;4958985;28;20568;-64
2022/06/05 00:33:48;;;;;;;7.28;4.40;;;22.00;79.30;;;;;;4959797;28;20121;-63
2022/06/05 00:36:35;;;;;;;9.35;4.40;;;21.90;83.30;;;;;;4976291;28;20135;-64
2022/06/05 00:39:36;;;;;;;8.35;4.00;;;22.00;83.30;;;;;;4961905;28;20483;-63
2022/06/05 00:42:13;;;;;;;8.07;4.40;;;21.70;83.20;;;;;;4974593;28;20105;-64
2022/06/05 00:44:46;;;;;;;9.88;4.65;;;21.90;83.40;;;;;;4976320;28;20486;-64
2022/06/05 00:47:14;;;;;;;8.50;4.40;;;21.80;80.10;;;;;;4949073;28;20064;-64
2022/06/05 00:49:45;;;;;;;9.02;4.97;;;21.80;83.30;;;;;;4979730;28;20439;-64
2022/06/05 00:52:11;;;;;;;7.85;4.43;;;21.90;83.50;;;;;;4990002;28;20117;-64
2022/06/05 00:54:37;;;;;;;9.48;4.30;;;21.70;83.10;;;;;;4996193;28;20396;-63
2022/06/05 00:57:06;;;;;;;9.65;5.10;;;22.10;80.40;;;;;;5014397;28;20107;-64
2022/06/05 00:59:31;;;;;;;8.77;5.10;;;21.90;83.40;;;;;;4982624;28;20140;-63
2022/06/05 01:01:57;;;;;;;8.07;4.28;;;22.00;83.30;;;;;;4981308;28;20137;-64
2022/06/05 01:04:23;;;;;;;8.18;4.43;;;22.00;80.40;;;;;;4991261;28;20123;-63
2022/06/05 01:06:48;;;;;;;8.82;4.57;;;21.80;83.20;;;;;;4995677;28;20064;-64
2022/06/05 01:09:14;;;;;;;9.95;4.72;;;21.80;83.40;;;;;;5011709;28;20585;-64
2022/06/05 01:12:04;;;;;;;7.63;4.38;;;21.90;83.10;;;;;;4994919;28;20050;-63
2022/06/05 01:14:49;;;;;;;8.27;4.90;;;21.80;83.30;;;;;;4995714;28;20041;-64
2022/06/05 01:17:37;;;;;;;8.60;4.20;;;21.80;83.50;;;;;;5014511;28;20049;-63
2022/06/05 01:20:07;;;;;;;8.30;4.28;;;21.90;83.40;;;;;;5051446;28;20049;-63
2022/06/05 01:23:04;;;;;;;9.50;4.57;;;21.90;83.30;;;;;;5049348;28;20048;-65
2022/06/05 01:26:04;;;;;;;10.27;4.85;;;21.80;79.40;;;;;;5035596;28;20071;-64
2022/06/05 01:28:41;;;;;;;8.77;4.90;;;21.90;83.50;;;;;;5051248;28;20474;-64
2022/06/05 01:31:21;;;;;;;8.38;4.90;;;21.80;83.50;;;;;;5025322;28;20103;-63
2022/06/05 01:34:16;;;;;;;7.65;4.03;;;21.80;83.30;;;;;;5046482;28;20080;-64
2022/06/05 01:36:53;;;;;;;7.43;4.63;;;21.70;78.40;;;;;;4990077;28;20074;-64
2022/06/05 01:39:38;;;;;;;8.57;4.53;;;21.70;83.30;;;;;;4975482;28;20086;-64
2022/06/05 01:42:15;;;;;;;8.95;4.40;;;21.90;83.40;;;;;;4976648;28;20086;-64
2022/06/05 01:44:45;;;;;;;8.32;4.55;;;21.70;83.60;;;;;;4974120;28;20125;-63
2022/06/05 01:47:19;;;;;;;8.50;4.30;;;21.80;83.30;;;;;;4957620;28;20074;-64
2022/06/05 01:49:59;;;;;;;9.18;4.78;;;21.60;83.50;;;;;;4957935;28;20053;-64
2022/06/05 01:52:49;;;;;;;7.75;4.50;;;22.00;79.60;;;;;;4975526;28;20046;-64
2022/06/05 01:55:17;;;;;;;9.32;5.32;;;21.90;81.00;;;;;;4976854;28;20412;-64
2022/06/05 01:57:43;;;;;;;7.43;4.32;;;;;;;;;;4974632;28;20178;-63
2022/06/05 02:00:13;;;;;;;8.63;4.47;;;21.70;83.80;;;;;;4959306;28;20058;-64
2022/06/05 02:02:53;;;;;;;8.32;4.40;;;21.80;83.50;;;;;;4959551;28;20423;-64
2022/06/05 02:05:23;;;;;;;8.98;4.82;;;21.80;79.30;;;;;;4960193;28;20082;-64
2022/06/05 02:07:49;;;;;;;8.30;4.95;;;21.80;83.50;;;;;;4974353;28;20077;-64
2022/06/05 02:10:32;;;;;;;10.05;5.28;;;21.70;80.80;;;;;;4958357;28;20219;-64
2022/06/05 02:12:58;;;;;;;12.30;5.75;;;21.60;83.40;;;;;;5008259;28;20049;-64
2022/06/05 02:15:25;;;;;;;10.30;5.00;;;21.60;80.70;;;;;;5033872;28;20116;-64
2022/06/05 02:17:51;;;;;;;9.65;5.25;;;21.60;83.60;;;;;;5069751;28;20055;-64
2022/06/05 02:20:17;;;;;;;9.20;4.65;;;21.80;83.60;;;;;;5053439;28;20049;-63
2022/06/05 02:22:47;;;;;;;11.52;4.95;;;21.70;83.50;;;;;;5033699;28;20040;-64
2022/06/05 02:25:13;;;;;;;8.88;5.22;;;21.70;83.60;;;;;;5054321;28;20041;-64
2022/06/05 02:27:39;;;;;;;11.45;5.50;;;21.80;83.60;;;;;;5054126;28;20053;-63
2022/06/05 02:30:07;;;;;;;9.18;5.15;;;21.70;83.60;;;;;;5054952;28;20033;-64
2022/06/05 02:32:47;;;;;;;10.15;5.32;;;21.70;80.60;;;;;;5054621;28;20442;-63
2022/06/05 02:35:28;;;;;;;9.30;5.43;;;21.80;83.70;;;;;;5054095;28;20051;-64
2022/06/05 02:38:09;;;;;;;8.30;4.70;;;21.80;83.70;;;;;;5053084;28;20075;-63
2022/06/05 02:41:04;;;;;;;7.95;5.45;;;21.80;83.80;;;;;;5047969;28;20058;-63
2022/06/05 02:44:29;;;;;;;9.45;5.20;;;21.60;83.70;;;;;;5068160;28;20041;-63
2022/06/05 02:46:41;;;;;;;7.32;5.00;;;21.70;84.20;;;;;;5042849;28;20479;-64
2022/06/05 02:49:19;;;;;;;10.93;5.70;;;21.80;83.90;;;;;;5051949;28;20044;-63
2022/06/05 02:51:45;;;;;;;9.35;5.63;;;21.80;83.80;;;;;;5035461;28;20102;-64
2022/06/05 02:54:21;;;;;;;8.73;5.22;;;21.70;80.60;;;;;;5037220;28;20091;-63
2022/06/05 02:56:47;;;;;;;9.43;5.03;;;21.90;83.90;;;;;;5036273;28;20398;-64
2022/06/05 02:59:12;;;;;;;8.63;5.78;;;21.70;84.00;;;;;;5053489;28;20048;-63
2022/06/05 03:04:23;;;;;;;8.38;5.32;;;21.80;84.10;;;;;;5047730;28;20490;-64
2022/06/05 03:06:48;;;;;;;11.40;5.43;;;21.80;84.00;;;;;;5054449;28;20052;-63
2022/06/05 03:09:15;;;;;;;9.05;5.50;;;21.70;83.90;;;;;;5054772;28;20087;-63
2022/06/05 03:11:42;;;;;;;8.55;5.35;;;;;;;;;;5053315;28;20079;-64
2022/06/05 03:14:08;;;;;;;8.52;5.60;;;21.90;84.10;;;;;;5050873;28;20123;-64
2022/06/05 03:16:34;;;;;;;8.60;5.40;;;21.80;83.70;;;;;;5052825;28;20494;-64
2022/06/05 03:19:00;;;;;;;9.15;5.22;;;21.90;83.90;;;;;;5052946;28;20041;-63
2022/06/05 03:21:25;;;;;;;8.32;5.05;;;21.50;83.70;;;;;;5052535;28;20125;-63
2022/06/05 03:23:51;;;;;;;10.13;5.47;;;21.80;84.00;;;;;;5053012;28;20068;-63
2022/06/05 03:26:17;;;;;;;8.85;5.97;;;21.90;84.00;;;;;;5052034;28;20087;-63
2022/06/05 03:28:43;;;;;;;10.75;5.60;;;;;;;;;;5054033;28;20033;-64
2022/06/05 03:31:09;;;;;;;8.27;5.28;;;21.60;83.90;;;;;;5052683;28;20037;-63
2022/06/05 03:33:37;;;;;;;9.93;5.57;;;21.70;81.10;;;;;;5052161;28;20052;-63
2022/06/05 03:36:10;;;;;;;9.25;5.65;;;21.80;83.70;;;;;;5052107;28;20036;-63
2022/06/05 03:38:36;;;;;;;10.85;5.78;;;21.60;81.40;;;;;;5052941;28;20052;-64
2022/06/05 03:41:02;;;;;;;7.82;5.25;;;21.60;80.80;;;;;;5052827;28;20041;-63
2022/06/05 03:43:28;;;;;;;9.32;5.93;;;21.80;84.00;;;;;;5052574;28;20070;-63
2022/06/05 03:46:07;;;;;;;8.50;5.95;;;21.90;84.10;;;;;;5052277;28;20044;-63
2022/06/05 03:48:33;;;;;;;9.25;5.70;;;21.60;84.00;;;;;;5051807;28;20048;-64
2022/06/05 03:50:59;;;;;;;7.88;5.63;;;21.80;84.20;;;;;;5052803;28;20411;-63
2022/06/05 03:53:25;;;;;;;8.88;5.68;;;21.80;84.10;;;;;;5053389;28;20041;-64
2022/06/05 03:55:50;;;;;;;10.25;5.90;;;21.70;84.00;;;;;;5052020;28;20056;-64
2022/06/05 03:58:17;;;;;;;8.95;5.70;;;;;;;;;;5052197;28;20479;-64
2022/06/05 04:00:42;;;;;;;9.35;6.07;;;21.90;84.30;;;;;;5052366;28;20102;-64
2022/06/05 04:03:08;;;;;;;10.18;5.80;;;21.90;84.70;;;;;;5048882;28;20049;-64
2022/06/05 04:05:34;;;;;;;10.35;5.40;;;21.90;84.10;;;;;;5050481;28;20150;-64
2022/06/05 04:08:00;;;;;;;11.15;5.80;;;21.90;84.20;;;;;;5052437;28;20052;-64
2022/06/05 04:10:25;;;;;;;7.93;5.35;;;21.80;84.00;;;;;;5048814;28;20091;-64
2022/06/05 04:12:52;;;;;;;9.88;5.70;;;21.90;81.00;;;;;;5053368;28;20041;-63
2022/06/05 04:15:18;;;;;;;10.65;6.22;;;;;;;;;;5053747;28;20043;-64
2022/06/05 04:17:44;;;;;;;9.55;5.93;;;22.60;79.50;;;;;;5049627;28;20033;-64
2022/06/05 04:20:10;;;;;;;10.07;5.88;;;21.90;84.20;;;;;;5049985;28;20119;-63
2022/06/05 04:22:37;;;;;;;8.70;5.88;;;22.00;83.90;;;;;;5067536;28;20376;-63
2022/06/05 04:25:07;;;;;;;10.80;6.40;;;22.10;84.00;;;;;;5052373;28;20051;-64
2022/06/05 04:27:33;;;;;;;9.05;5.70;;;22.10;83.80;;;;;;5033386;28;20402;-64
2022/06/05 04:29:59;;;;;;;9.02;6.00;;;22.00;83.70;;;;;;5053418;28;20044;-64
2022/06/05 04:32:25;;;;;;;8.90;5.80;;;21.90;83.80;;;;;;5051944;28;20117;-63
2022/06/05 04:34:51;;;;;;;9.55;6.10;;;22.20;83.80;;;;;;5051764;28;20064;-63
2022/06/05 04:37:17;;;;;;;9.32;5.88;;;22.00;83.80;;;;;;5048491;28;20885;-63
2022/06/05 04:39:43;;;;;;;12.25;6.05;;;22.30;83.80;;;;;;5051894;28;20049;-63
2022/06/05 04:42:09;;;;;;;9.57;6.00;;;21.90;83.60;;;;;;5051815;28;20490;-63
2022/06/05 04:44:35;;;;;;;9.73;5.97;;;22.10;84.30;;;;;;5053098;28;20094;-64
2022/06/05 04:47:00;;;;;;;10.90;6.28;;;22.10;83.60;;;;;;5047224;28;20045;-64
2022/06/05 04:49:26;;;;;;;8.13;5.47;;;22.20;83.60;;;;;;5050003;28;20040;-63
2022/06/05 04:51:52;;;;;;;11.45;6.47;;;;;;;;;;5052789;28;20063;-65
2022/06/05 04:54:18;;;;;;;10.27;6.60;;;22.10;79.40;;;;;;5051300;28;20049;-64
2022/06/05 04:56:44;;;;;;;10.77;6.35;;;;;;;;;;5052986;28;20056;-64
2022/06/05 04:59:10;;;;;;;9.77;6.07;;;22.40;83.00;;;;;;5050012;28;20058;-64
2022/06/05 05:01:37;;;;;;;10.00;6.50;;;22.70;82.70;;;;;;5050998;28;20443;-64
2022/06/05 05:04:12;;;;;;;11.52;6.75;;;22.80;82.50;;;;;;5052700;28;20045;-64
2022/06/05 05:06:38;;;;;;;11.85;6.55;;;22.90;82.20;;;;;;5035838;28;20099;-64
2022/06/05 05:09:05;;;;;;;8.52;5.90;;;;;;;;;;5049487;28;20057;-64
2022/06/05 05:11:30;;;;;;;10.70;7.05;;;23.20;81.80;;;;;;5050312;28;20495;-64
2022/06/05 05:13:56;;;;;;;9.40;6.55;;;23.20;81.70;;;;;;5050162;28;20110;-64
2022/06/05 05:16:23;;;;;;;9.55;6.72;;;23.40;81.80;;;;;;5051103;28;20493;-64
2022/06/05 05:18:48;;;;;;;10.75;7.10;;;23.30;78.80;;;;;;5034746;28;20048;-63
2022/06/05 05:21:16;;;;;;;9.85;6.47;;;23.10;78.80;;;;;;5048900;28;20391;-64
2022/06/05 05:23:42;;;;;;;9.32;6.60;;;23.10;81.50;;;;;;5051001;28;20040;-64
2022/06/05 05:26:10;;;;;;;9.73;6.45;;;23.00;81.60;;;;;;5050831;28;20478;-64
2022/06/05 05:28:36;;;;;;;10.52;6.43;;;23.30;81.40;;;;;;5022049;28;20551;-64
2022/06/05 05:31:02;;;;;;;11.00;6.45;;;23.30;78.70;;;;;;5050046;28;20551;-64
2022/06/05 05:33:28;;;;;;;8.30;5.90;;;23.60;81.10;;;;;;5018290;28;20045;-64
2022/06/05 05:35:54;;;;;;;9.27;6.03;;;23.70;80.90;;;;;;5050261;28;20056;-64
2022/06/05 05:38:20;;;;;;;9.63;6.53;;;23.60;77.90;;;;;;5052321;28;20041;-63
2022/06/05 05:43:29;;;;;;;9.60;6.22;;;23.90;76.90;;;;;;5052326;28;20049;-64
2022/06/05 05:45:55;;;;;;;9.88;6.30;;;23.60;80.40;;;;;;5051723;28;20068;-63
2022/06/05 05:48:21;;;;;;;10.27;7.10;;;23.80;77.40;;;;;;5050889;28;20041;-64
2022/06/05 05:50:47;;;;;;;9.98;7.13;;;23.80;80.30;;;;;;5054370;28;20045;-64
2022/06/05 05:53:13;;;;;;;8.23;5.82;;;23.80;80.30;;;;;;5054113;28;20047;-63
2022/06/05 05:55:39;;;;;;;12.05;7.63;;;23.60;77.30;;;;;;5055722;28;20479;-63
2022/06/05 05:58:07;;;;;;;9.50;6.57;;;23.90;80.10;;;;;;5053956;28;20045;-64
2022/06/05 06:00:33;;;;;;;8.18;6.18;;;24.30;80.20;;;;;;5054771;28;20055;-63
2022/06/05 06:02:59;;;;;;;9.98;6.53;;;24.00;77.10;;;;;;5050948;28;20546;-64
2022/06/05 06:05:25;;;;;;;8.57;6.13;;;23.80;76.90;;;;;;5055590;28;20044;-64
2022/06/05 06:07:51;;;;;;;9.93;6.63;;;24.10;79.70;;;;;;5052502;28;20045;-64
2022/06/05 06:10:17;;;;;;;9.05;6.07;;;24.10;76.60;;;;;;5055563;28;20082;-64
2022/06/05 06:12:43;;;;;;;10.75;6.22;;;24.10;79.60;;;;;;5054524;28;20057;-64
2022/06/05 06:15:09;;;;;;;8.88;6.05;;;23.90;76.60;;;;;;5054424;28;20083;-64
2022/06/05 06:17:35;;;;;;;10.95;6.45;;;24.30;79.80;;;;;;5022250;28;20102;-64
2022/06/05 06:20:01;;;;;;;10.13;6.18;;;24.00;76.80;;;;;;5050064;28;20123;-63
2022/06/05 06:22:27;;;;;;;10.30;6.28;;;24.30;79.70;;;;;;5053129;28;20036;-63
2022/06/05 06:24:53;;;;;;;8.55;6.15;;;24.20;76.90;;;;;;5055904;28;20120;-64
2022/06/05 06:27:18;;;;;;;9.25;5.88;;;24.00;76.40;;;;;;5055901;28;20079;-63
2022/06/05 06:29:44;;;;;;;9.18;5.75;;;24.00;79.60;;;;;;5055218;28;20072;-64
2022/06/05 06:32:10;;;;;;;9.25;6.10;;;23.90;79.60;;;;;;5053149;28;20498;-64
2022/06/05 06:34:36;;;;;;;10.23;7.00;;;24.00;79.60;;;;;;5054243;28;20132;-64
2022/06/05 06:37:03;;;;;;;9.75;6.90;;;24.20;79.70;;;;;;5053672;28;20072;-64
2022/06/05 06:39:28;;;;;;;11.45;6.18;;;23.80;76.30;;;;;;5055438;28;20124;-64
2022/06/05 06:41:54;;;;;;;9.77;6.00;;;23.90;79.40;;;;;;5053995;28;20463;-64
2022/06/05 06:44:20;;;;;;;9.02;6.68;;;24.00;76.50;;;;;;5053321;28;20044;-64
2022/06/05 06:46:46;;;;;;;9.10;6.22;;;24.00;76.40;;;;;;5054046;28;20033;-64
2022/06/05 06:49:12;;;;;;;10.35;6.70;;;23.90;76.40;;;;;;5054218;28;20045;-64
2022/06/05 06:51:38;;;;;;;10.10;6.28;;;24.10;76.50;;;;;;5053808;28;20079;-64
2022/06/05 06:54:03;;;;;;;8.98;6.50;;;24.10;76.30;;;;;;5053558;28;20115;-63
2022/06/05 06:56:30;;;;;;;11.70;6.43;;;24.20;76.60;;;;;;5037061;28;20049;-64
2022/06/05 06:58:57;;;;;;;10.13;6.70;;;24.20;79.60;;;;;;5054300;28;20441;-63
2022/06/05 07:01:23;;;;;;;9.80;6.60;;;24.20;79.90;;;;;;5053376;28;20071;-63
2022/06/05 07:03:49;;;;;;;12.05;6.60;;;24.10;79.40;;;;;;5036143;28;20048;-73
2022/06/05 07:06:15;;;;;;;9.68;7.13;;;23.90;76.50;;;;;;5036688;28;20083;-64
2022/06/05 07:08:41;;;;;;;10.73;6.70;;;23.80;79.60;;;;;;5053425;28;20048;-64
2022/06/05 07:11:09;;;;;;;10.68;6.93;;;24.00;76.70;;;;;;5049975;28;20086;-64
2022/06/05 07:13:35;;;;;;;10.75;6.97;;;24.30;79.60;;;;;;5034450;28;20049;-64
2022/06/05 07:16:01;;;;;;;13.43;7.03;;;24.00;76.30;;;;;;5053591;28;20044;-64
2022/06/05 07:18:26;;;;;;;11.07;7.00;;;24.20;76.30;;;;;;5036509;28;20123;-64
2022/06/05 07:20:53;;;;;;;11.73;7.85;;;24.30;75.90;;;;;;5053922;28;20435;-64
2022/06/05 07:23:19;;;;;;;11.63;8.00;;;24.40;79.00;;;;;;5054529;28;20390;-64
2022/06/05 07:25:49;;;;;;;14.15;7.93;;;24.50;78.70;;;;;;5033651;28;20049;-64
2022/06/05 07:28:15;;;;;;;11.18;7.78;;;24.60;78.70;;;;;;5031045;28;20074;-74
2022/06/05 07:30:45;;;;;;;12.93;8.30;;;24.50;75.90;;;;;;5035923;28;20128;-68
2022/06/05 07:33:10;;;;;;;12.07;8.57;;;24.50;75.90;;;;;;5053398;28;20171;-64
2022/06/05 07:35:36;;;;;;;11.05;8.63;;;24.60;75.50;;;;;;5049874;28;20112;-64
2022/06/05 07:38:02;;;;;;;10.73;8.75;;;24.60;74.70;;;;;;5054508;28;20052;-64
2022/06/05 07:40:28;;;;;;;12.07;7.93;;;24.40;75.20;;;;;;5051542;28;20049;-63
2022/06/05 07:42:54;;;;;;;11.23;8.20;;;24.60;74.80;;;;;;5051483;28;20067;-74
2022/06/05 07:45:20;;;;;;;11.60;8.15;;;24.60;74.90;;;;;;5043513;28;20046;-63
2022/06/05 07:47:46;;;;;;;11.07;8.77;;;24.80;74.70;;;;;;5054129;28;20372;-64
2022/06/05 07:50:12;;;;;;;11.80;8.60;;;24.90;74.80;;;;;;5052869;28;20095;-64
2022/06/05 07:55:23;;;;;;;10.23;8.05;;;24.70;73.70;;;;;;5053772;28;20403;-74
2022/06/05 07:57:49;;;;;;;10.23;8.52;;;24.90;74.50;;;;;;5052096;28;20029;-72
2022/06/05 08:00:15;;;;;;;11.55;8.73;;;24.80;74.50;;;;;;5052445;28;20127;-71
2022/06/05 08:02:41;;;;;;;15.27;7.95;;;25.00;74.50;;;;;;5052061;28;20044;-70
2022/06/05 08:05:07;;;;;;;14.07;8.00;;;25.00;74.30;;;;;;5052986;28;20129;-64
2022/06/05 08:07:33;;;;;;;9.10;7.72;;;24.90;74.10;;;;;;5051239;28;20040;-64
2022/06/05 08:10:00;;;;;;;9.13;7.72;;;25.20;74.40;;;;;;5053589;28;20045;-65
2022/06/05 08:12:29;;;;;;;10.70;7.80;;;25.00;77.00;;;;;;5032557;28;20240;-72
2022/06/05 08:14:55;;;;;;;10.43;7.75;;;25.10;74.60;;;;;;5034846;28;20053;-65
2022/06/05 08:17:28;;;;;;;11.45;8.00;;;25.20;74.20;;;;;;5034644;28;20095;-64
2022/06/05 08:19:54;;;;;;;10.32;7.60;;;25.00;74.40;;;;;;5036717;28;20053;-64
2022/06/05 08:22:21;;;;;;;10.35;7.38;;;25.10;73.80;;;;;;5032768;28;20056;-64
2022/06/05 08:24:47;;;;;;;10.48;7.75;;;25.30;74.40;;;;;;5052238;28;20041;-64
2022/06/05 08:27:16;;;;;;;10.00;7.50;;;25.40;74.00;;;;;;5035493;28;20107;-64
2022/06/05 08:29:42;;;;;;;10.13;7.38;;;25.40;74.40;;;;;;5050343;28;20524;-64
2022/06/05 08:32:08;;;;;;;10.10;8.25;;;25.10;73.90;;;;;;5053045;28;20045;-72
2022/06/05 08:34:33;;;;;;;9.27;7.80;;;25.00;74.00;;;;;;5036084;28;20049;-64
2022/06/05 08:42:51;;;;;;;9.75;7.32;;;25.40;73.20;;;;;;5053627;28;20088;-63
2022/06/05 08:45:22;;;;;;;10.77;7.88;;;25.40;73.10;;;;;;5034317;28;20079;-64
2022/06/05 08:47:57;;;;;;;10.38;7.50;;;25.40;74.50;;;;;;5052436;28;20056;-64
2022/06/05 08:50:46;;;;;;;10.30;7.00;;;25.40;72.90;;;;;;5049888;28;20059;-64
2022/06/05 08:53:50;;;;;;;8.95;7.10;;;25.10;72.80;;;;;;5042792;28;20049;-64
2022/06/05 08:56:22;;;;;;;9.50;7.13;;;25.30;72.80;;;;;;5004723;28;20086;-63
2022/06/05 08:58:53;;;;;;;10.27;7.60;;;25.40;74.50;;;;;;4995532;28;20065;-64
2022/06/05 09:01:28;;;;;;;10.07;7.00;;;25.40;72.80;;;;;;5010727;28;20052;-64
2022/06/05 09:04:15;;;;;;;10.45;6.90;;;25.40;74.50;;;;;;4994651;28;20046;-64
2022/06/05 09:06:44;;;;;;;10.85;7.50;;;25.40;77.10;;;;;;4990535;28;21078;-64
2022/06/05 09:09:18;;;;;;;8.18;6.50;;;25.30;74.40;;;;;;4990696;28;20068;-64
2022/06/05 09:11:48;;;;;;;10.18;6.78;;;25.10;73.30;;;;;;4979770;28;20057;-64
2022/06/05 09:14:32;;;;;;;8.35;6.13;;;25.10;74.40;;;;;;4979159;28;20060;-64
2022/06/05 09:17:01;;;;;;;8.55;7.03;;;25.40;72.90;;;;;;4994193;28;20070;-64
2022/06/05 09:19:29;;;;;;;8.05;6.25;;;25.10;74.40;;;;;;4991918;28;20042;-63
2022/06/05 09:22:17;;;;;;;10.23;7.03;;;25.40;74.50;;;;;;5010308;28;20041;-66
2022/06/05 09:25:03;;;;;;;9.13;6.97;;;25.20;73.20;;;;;;4994854;28;20127;-64
2022/06/05 09:28:01;;;;;;;9.48;6.43;;;25.10;73.00;;;;;;4994037;28;20045;-80
2022/06/05 09:31:02;;;;;;;9.40;6.57;;;25.40;73.30;;;;;;5016222;28;20099;-64
2022/06/05 09:33:34;;;;;;;8.00;5.85;;;25.10;73.00;;;;;;5011900;28;20057;-64
2022/06/05 09:36:11;;;;;;;10.05;6.82;;;25.30;75.30;;;;;;5013790;28;20518;-64
2022/06/05 09:38:45;;;;;;;8.63;6.07;;;25.20;74.80;;;;;;4998880;28;20135;-64
2022/06/05 09:41:11;;;;;;;8.48;6.07;;;25.10;74.70;;;;;;4995620;28;20037;-64
2022/06/05 09:43:48;;;;;;;8.75;5.95;;;25.30;74.30;;;;;;5014489;28;20476;-64
2022/06/05 09:46:28;;;;;;;8.60;6.25;;;25.10;73.10;;;;;;5030993;28;20115;-64
2022/06/05 09:48:57;;;;;;;7.90;6.15;;;25.10;74.20;;;;;;5014516;28;20049;-64
2022/06/05 09:51:22;;;;;;;8.43;6.38;;;25.20;74.70;;;;;;4993822;28;20065;-63
2022/06/05 09:54:07;;;;;;;8.25;6.13;;;25.30;74.10;;;;;;5004158;28;20046;-64
2022/06/05 09:59:34;;;;;;;8.68;6.25;;;25.20;73.20;;;;;;5013314;28;20084;-68
2022/06/05 10:02:01;;;;;;;9.95;6.60;;;25.30;73.20;;;;;;5029350;28;20053;-78
2022/06/05 10:04:30;;;;;;;8.43;6.07;;;25.20;74.60;;;;;;5014507;28;20050;-78
2022/06/05 10:07:06;;;;;;;7.80;6.00;;;25.40;74.90;;;;;;5014329;28;20053;-65
2022/06/05 10:09:34;;;;;;;8.07;6.18;;;25.40;74.90;;;;;;5015858;28;20048;-64
2022/06/05 10:12:12;;;;;;;9.30;6.55;;;25.40;77.60;;;;;;5046093;28;20158;-66
2022/06/05 10:14:50;;;;;;;8.55;6.53;;;25.00;77.00;;;;;;5047861;28;20441;-63
2022/06/05 10:17:30;;;;;;;9.57;6.82;;;25.20;73.00;;;;;;5020292;28;20045;-65
2022/06/05 10:20:18;;;;;;;12.38;6.53;;;25.40;73.50;;;;;;5050096;28;20049;-64
2022/06/05 10:22:52;;;;;;;9.15;7.55;;;25.30;73.50;;;;;;5050572;28;20061;-64
2022/06/05 10:25:36;;;;;;;9.38;7.25;;;25.20;73.00;;;;;;5034751;28;20398;-64
2022/06/05 10:28:20;;;;;;;10.60;6.43;;;25.20;73.30;;;;;;5051442;28;20056;-64
2022/06/05 10:31:06;;;;;;;11.05;6.50;;;25.40;73.50;;;;;;5021812;28;20053;-64
2022/06/05 10:33:44;;;;;;;8.68;6.50;;;25.40;75.30;;;;;;5052543;28;20120;-64
2022/06/05 10:36:16;;;;;;;8.68;6.68;;;25.10;74.90;;;;;;5054367;28;20114;-64
2022/06/05 10:38:57;;;;;;;8.82;6.30;;;25.40;75.40;;;;;;5072150;28;20041;-64
2022/06/05 10:41:25;;;;;;;11.80;6.90;;;25.30;73.40;;;;;;5051369;28;20513;-79
2022/06/05 10:44:20;;;;;;;10.23;6.75;;;25.30;75.00;;;;;;5054982;28;20036;-72
2022/06/05 10:47:10;;;;;;;8.95;6.53;;;25.40;73.80;;;;;;5038213;28;20049;-64
2022/06/05 10:49:36;;;;;;;9.23;6.40;;;25.10;73.60;;;;;;5038455;28;20052;-65
2022/06/05 10:52:16;;;;;;;9.25;6.28;;;25.30;74.40;;;;;;5051660;28;20040;-78
2022/06/05 10:54:56;;;;;;;10.35;5.97;;;25.10;73.60;;;;;;5054504;28;20037;-77
2022/06/05 10:57:28;;;;;;;7.95;5.85;;;25.30;73.60;;;;;;5038361;28;20039;-78
2022/06/05 11:00:20;;;;;;;8.15;6.00;;;25.20;75.10;;;;;;5036191;28;20057;-75
2022/06/05 11:03:11;;;;;;;9.10;6.38;;;25.40;73.80;;;;;;5051464;28;20051;-79
2022/06/05 11:05:52;;;;;;;8.30;6.00;;;25.40;73.90;;;;;;5054289;28;20506;-76
2022/06/05 11:08:25;;;;;;;11.55;6.13;;;25.30;73.80;;;;;;5050360;28;20124;-73
2022/06/05 11:14:00;;;;;;;13.32;6.18;;;25.30;74.10;;;;;;5034195;28;20054;-66
2022/06/05 11:17:00;;;;;;;7.63;6.25;;;25.40;75.10;;;;;;5044460;28;20048;-77
2022/06/05 11:19:54;;;;;;;9.80;6.63;;;25.40;73.80;;;;;;5027859;28;20049;-79
2022/06/05 11:22:19;;;;;;;10.50;6.28;;;25.40;73.90;;;;;;5016194;28;20145;-64
2022/06/05 11:24:50;;;;;;;9.52;6.47;;;25.40;74.80;;;;;;5016653;28;20610;-65
2022/06/05 11:27:27;;;;;;;9.30;6.50;;;25.20;75.10;;;;;;4983983;28;20049;-64
2022/06/05 11:29:59;;;;;;;8.57;6.32;;;25.30;75.30;;;;;;5000363;28;20061;-65
2022/06/05 11:32:28;;;;;;;10.85;6.10;;;25.20;73.30;;;;;;5015464;28;20101;-64
2022/06/05 11:34:59;;;;;;;8.73;6.38;;;25.40;73.50;;;;;;5016436;28;20041;-64
2022/06/05 11:38:02;;;;;;;8.65;6.00;;;25.30;73.60;;;;;;5016776;28;20069;-65
2022/06/05 11:40:33;;;;;;;9.18;6.13;;;25.50;74.00;;;;;;4996908;28;20521;-65
2022/06/05 11:43:17;;;;;;;8.60;6.18;;;25.30;73.70;;;;;;5023189;28;20095;-65
2022/06/05 11:45:49;;;;;;;10.23;6.07;;;25.30;73.50;;;;;;5031116;28;20045;-64
2022/06/05 11:48:45;;;;;;;9.25;6.07;;;25.40;78.10;;;;;;5014903;28;20050;-64
2022/06/05 11:51:24;;;;;;;10.25;5.75;;;25.40;73.90;;;;;;5016173;28;20045;-64
2022/06/05 11:54:20;;;;;;;8.57;6.20;;;25.40;73.70;;;;;;5000585;28;20119;-64
2022/06/05 11:57:08;;;;;;;8.75;5.82;;;25.50;78.30;;;;;;5023211;28;20124;-62
2022/06/05 11:59:56;;;;;;;8.95;6.00;;;25.40;73.90;;;;;;5035167;28;20510;-65
2022/06/05 12:02:38;;;;;;;9.77;6.60;;;25.10;73.50;;;;;;5033407;28;20049;-64
2022/06/05 12:05:21;;;;;;;8.48;5.80;;;25.40;75.20;;;;;;5034177;28;20057;-64
2022/06/05 12:07:48;;;;;;;8.68;5.75;;;25.30;73.40;;;;;;5033658;28;20053;-64
2022/06/05 12:10:23;;;;;;;9.02;5.68;;;25.40;75.10;;;;;;5033643;28;20045;-64
2022/06/05 12:13:13;;;;;;;9.07;6.28;;;25.20;73.50;;;;;;5049551;28;20053;-64
2022/06/05 12:15:48;;;;;;;10.75;6.28;;;25.40;73.70;;;;;;5034884;28;20045;-63
2022/06/05 12:18:18;;;;;;;9.52;5.82;;;25.40;74.90;;;;;;5051168;28;20127;-63
2022/06/05 12:20:53;;;;;;;7.63;5.88;;;25.40;75.00;;;;;;5032665;28;20053;-64
2022/06/05 12:23:28;;;;;;;8.70;6.18;;;25.50;73.60;;;;;;5032646;28;20056;-64
2022/06/05 12:26:12;;;;;;;8.93;5.75;;;25.50;73.50;;;;;;5031674;28;20049;-63
2022/06/05 12:28:41;;;;;;;7.95;5.93;;;25.40;75.20;;;;;;5032340;28;20510;-64
2022/06/05 12:31:12;;;;;;;7.72;6.03;;;25.50;73.50;;;;;;5034473;28;20114;-64
2022/06/05 12:33:50;;;;;;;11.00;5.97;;;25.00;73.10;;;;;;5017354;28;20045;-64
2022/06/05 12:36:19;;;;;;;7.65;5.57;;;25.20;73.60;;;;;;5032806;28;20060;-64
2022/06/05 12:39:05;;;;;;;11.35;6.22;;;25.30;73.40;;;;;;5048730;28;20045;-64
2022/06/05 12:41:53;;;;;;;7.35;5.88;;;25.30;73.50;;;;;;5036823;28;20049;-64
2022/06/05 12:44:33;;;;;;;9.77;5.93;;;25.50;74.00;;;;;;5037022;28;20056;-64
2022/06/05 12:47:18;;;;;;;10.13;6.25;;;25.30;73.80;;;;;;5052915;28;20037;-63
2022/06/05 12:49:56;;;;;;;7.93;6.00;;;25.10;73.50;;;;;;5037738;28;20053;-64
2022/06/05 12:52:42;;;;;;;9.02;6.10;;;25.10;75.10;;;;;;5051989;28;20380;-64
2022/06/05 12:55:32;;;;;;;8.38;5.65;;;25.30;75.60;;;;;;5052361;28;20073;-64
2022/06/05 12:58:15;;;;;;;6.70;5.75;;;25.20;75.50;;;;;;5049230;28;20037;-64
2022/06/05 13:00:50;;;;;;;7.43;6.18;;;25.30;73.90;;;;;;5048992;28;20045;-63
2022/06/05 13:03:25;;;;;;;8.70;6.10;;;25.10;73.80;;;;;;5053153;28;20131;-62
2022/06/05 13:05:58;;;;;;;9.30;6.45;;;24.90;73.60;;;;;;5053478;28;20487;-64
2022/06/05 13:08:45;;;;;;;8.00;6.45;;;25.00;73.50;;;;;;5035700;28;20120;-64
2022/06/05 13:11:28;;;;;;;8.82;6.38;;;25.30;75.70;;;;;;5068287;28;20053;-64
2022/06/05 13:13:58;;;;;;;7.78;5.75;;;25.40;75.70;;;;;;5051795;28;20522;-65
2022/06/05 13:16:46;;;;;;;8.02;6.07;;;25.40;75.50;;;;;;5051800;28;20055;-64
2022/06/05 13:19:23;;;;;;;10.68;6.35;;;25.20;74.00;;;;;;5053078;28;20080;-64
2022/06/05 13:22:10;;;;;;;9.50;6.22;;;25.40;75.70;;;;;;5053365;28;20067;-64
2022/06/05 13:25:09;;;;;;;7.72;6.28;;;25.00;75.80;;;;;;5044787;28;20102;-64
2022/06/05 13:27:47;;;;;;;7.85;6.10;;;24.80;74.10;;;;;;5029009;28;20407;-64
2022/06/05 13:30:17;;;;;;;9.80;6.55;;;25.00;74.00;;;;;;5032367;28;20048;-64
2022/06/05 13:32:42;;;;;;;10.32;6.43;;;25.20;75.70;;;;;;5033570;28;20091;-64